sensor_id;sensor_type;location;lat;lon;timestamp;temperature;humidity
48264;DHT22;34086;51.076;13.722;2023-05-10T00:00:19;13.00;99.80
48264;DHT22;34086;51.076;13.722;2023-05-10T00:01:20;13.00;99.90
48264;DHT22;34086;51.076;13.722;2023-05-10T00:02:21;13.00;99.90
48264;DHT22;34086;51.076;13.722;2023-05-10T00:03:21;13.00;99.90
48264;DHT22;34086;51.076;13.722;2023-05-10T00:04:22;12.90;99.90
48264;DHT22;34086;51.076;13.722;2023-05-10T00:05:23;13.00;99.90
48264;DHT22;34086;51.076;13.722;2023-05-10T00:06:23;13.00;99.90
48264;DHT22;34086;51.076;13.722;2023-05-10T00:07:24;12.90;99.90
48264;DHT22;34086;51.076;13.722;2023-05-10T00:08:24;12.90;99.90
48264;DHT22;34086;51.076;13.722;2023-05-10T00:09:25;12.90;99.90
48264;DHT22;34086;51.076;13.722;2023-05-10T00:10:26;12.90;99.90
48264;DHT22;34086;51.076;13.722;2023-05-10T00:11:26;12.90;99.90
48264;DHT22;34086;51.076;13.722;2023-05-10T00:12:27;12.80;99.90
48264;DHT22;34086;51.076;13.722;2023-05-10T00:13:27;12.80;99.90
48264;DHT22;34086;51.076;13.722;2023-05-10T00:14:28;12.90;99.90
48264;DHT22;34086;51.076;13.722;2023-05-10T00:15:29;12.90;99.90
48264;DHT22;34086;51.076;13.722;2023-05-10T00:16:30;12.90;99.90
48264;DHT22;34086;51.076;13.722;2023-05-10T00:17:31;12.90;99.90
48264;DHT22;34086;51.076;13.722;2023-05-10T00:18:31;12.90;99.90
48264;DHT22;34086;51.076;13.722;2023-05-10T00:19:32;12.90;99.90
48264;DHT22;34086;51.076;13.722;2023-05-10T00:20:33;12.90;99.90
48264;DHT22;34086;51.076;13.722;2023-05-10T00:21:33;12.80;99.90
48264;DHT22;34086;51.076;13.722;2023-05-10T00:22:34;12.80;99.90
48264;DHT22;34086;51.076;13.722;2023-05-10T00:23:34;12.80;99.90
48264;DHT22;34086;51.076;13.722;2023-05-10T00:24:35;12.80;99.90
48264;DHT22;34086;51.076;13.722;2023-05-10T00:25:35;12.70;99.90
48264;DHT22;34086;51.076;13.722;2023-05-10T00:26:36;12.70;99.90
48264;DHT22;34086;51.076;13.722;2023-05-10T00:27:37;12.70;99.90
48264;DHT22;34086;51.076;13.722;2023-05-10T00:28:37;12.70;99.90
48264;DHT22;34086;51.076;13.722;2023-05-10T00:29:38;12.60;99.90
48264;DHT22;34086;51.076;13.722;2023-05-10T00:30:38;12.60;99.90
48264;DHT22;34086;51.076;13.722;2023-05-10T00:31:39;12.60;99.90
48264;DHT22;34086;51.076;13.722;2023-05-10T00:32:39;12.60;99.90
48264;DHT22;34086;51.076;13.722;2023-05-10T00:33:40;12.60;99.90
48264;DHT22;34086;51.076;13.722;2023-05-10T00:34:41;12.60;99.90
48264;DHT22;34086;51.076;13.722;2023-05-10T00:35:41;12.60;99.90
48264;DHT22;34086;51.076;13.722;2023-05-10T00:36:43;12.60;99.90
48264;DHT22;34086;51.076;13.722;2023-05-10T00:37:43;12.60;99.90
48264;DHT22;34086;51.076;13.722;2023-05-10T00:38:45;12.60;99.90
48264;DHT22;34086;51.076;13.722;2023-05-10T00:39:46;12.60;99.90
48264;DHT22;34086;51.076;13.722;2023-05-10T00:40:46;12.60;99.90
48264;DHT22;34086;51.076;13.722;2023-05-10T00:41:55;12.60;99.90
48264;DHT22;34086;51.076;13.722;2023-05-10T00:42:57;12.60;99.90
48264;DHT22;34086;51.076;13.722;2023-05-10T00:43:59;12.50;99.90
48264;DHT22;34086;51.076;13.722;2023-05-10T00:44:59;12.60;99.90
48264;DHT22;34086;51.076;13.722;2023-05-10T00:46:00;12.60;99.90
48264;DHT22;34086;51.076;13.722;2023-05-10T00:47:01;12.60;99.90
48264;DHT22;34086;51.076;13.722;2023-05-10T00:48:02;12.60;99.90
48264;DHT22;34086;51.076;13.722;2023-05-10T00:49:04;12.50;99.90
48264;DHT22;34086;51.076;13.722;2023-05-10T00:50:05;12.50;99.90
48264;DHT22;34086;51.076;13.722;2023-05-10T00:51:06;12.50;99.90
48264;DHT22;34086;51.076;13.722;2023-05-10T00:52:06;12.40;99.90
48264;DHT22;34086;51.076;13.722;2023-05-10T00:53:08;12.50;99.90
48264;DHT22;34086;51.076;13.722;2023-05-10T00:54:11;12.50;99.90
48264;DHT22;34086;51.076;13.722;2023-05-10T00:55:12;12.40;99.90
48264;DHT22;34086;51.076;13.722;2023-05-10T00:56:13;12.40;99.90
48264;DHT22;34086;51.076;13.722;2023-05-10T00:57:14;12.40;99.90
48264;DHT22;34086;51.076;13.722;2023-05-10T00:58:15;12.40;99.90
48264;DHT22;34086;51.076;13.722;2023-05-10T00:59:16;12.40;99.90
48264;DHT22;34086;51.076;13.722;2023-05-10T01:00:18;12.30;99.90
48264;DHT22;34086;51.076;13.722;2023-05-10T01:01:19;12.30;99.90
48264;DHT22;34086;51.076;13.722;2023-05-10T01:02:20;12.30;99.90
48264;DHT22;34086;51.076;13.722;2023-05-10T01:03:20;12.30;99.90
48264;DHT22;34086;51.076;13.722;2023-05-10T01:04:22;12.30;99.90
48264;DHT22;34086;51.076;13.722;2023-05-10T01:05:25;12.30;99.90
48264;DHT22;34086;51.076;13.722;2023-05-10T01:06:27;12.20;99.90
48264;DHT22;34086;51.076;13.722;2023-05-10T01:07:28;12.20;99.90
48264;DHT22;34086;51.076;13.722;2023-05-10T01:08:28;12.20;99.90
48264;DHT22;34086;51.076;13.722;2023-05-10T01:09:30;12.20;99.90
48264;DHT22;34086;51.076;13.722;2023-05-10T01:10:31;12.20;99.90
48264;DHT22;34086;51.076;13.722;2023-05-10T01:11:33;12.20;99.90
48264;DHT22;34086;51.076;13.722;2023-05-10T01:12:37;12.20;99.90
48264;DHT22;34086;51.076;13.722;2023-05-10T01:13:39;12.10;99.90
48264;DHT22;34086;51.076;13.722;2023-05-10T01:14:41;12.10;99.90
48264;DHT22;34086;51.076;13.722;2023-05-10T01:15:42;12.10;99.90
48264;DHT22;34086;51.076;13.722;2023-05-10T01:16:44;12.10;99.90
48264;DHT22;34086;51.076;13.722;2023-05-10T01:17:46;12.10;99.90
48264;DHT22;34086;51.076;13.722;2023-05-10T01:18:48;12.10;99.90
48264;DHT22;34086;51.076;13.722;2023-05-10T01:19:50;12.10;99.90
48264;DHT22;34086;51.076;13.722;2023-05-10T01:23:31;12.00;99.90
48264;DHT22;34086;51.076;13.722;2023-05-10T01:25:00;12.00;99.90
48264;DHT22;34086;51.076;13.722;2023-05-10T01:26:14;12.00;99.90
48264;DHT22;34086;51.076;13.722;2023-05-10T01:29:14;12.00;99.90
48264;DHT22;34086;51.076;13.722;2023-05-10T01:32:08;11.90;99.90
48264;DHT22;34086;51.076;13.722;2023-05-10T01:33:32;12.00;99.90
48264;DHT22;34086;51.076;13.722;2023-05-10T01:34:47;12.00;99.90
48264;DHT22;34086;51.076;13.722;2023-05-10T01:36:11;11.90;99.90
48264;DHT22;34086;51.076;13.722;2023-05-10T01:37:21;11.90;99.90
48264;DHT22;34086;51.076;13.722;2023-05-10T01:38:46;11.90;99.90
48264;DHT22;34086;51.076;13.722;2023-05-10T01:39:58;11.80;99.90
48264;DHT22;34086;51.076;13.722;2023-05-10T01:41:29;11.80;99.90
48264;DHT22;34086;51.076;13.722;2023-05-10T01:42:39;11.70;99.90
48264;DHT22;34086;51.076;13.722;2023-05-10T01:44:02;11.70;99.90
48264;DHT22;34086;51.076;13.722;2023-05-10T01:45:18;11.60;99.90
48264;DHT22;34086;51.076;13.722;2023-05-10T01:46:28;11.60;99.90
48264;DHT22;34086;51.076;13.722;2023-05-10T01:47:41;11.60;99.90
48264;DHT22;34086;51.076;13.722;2023-05-10T01:48:48;11.60;99.90
48264;DHT22;34086;51.076;13.722;2023-05-10T01:49:54;11.60;99.90
48264;DHT22;34086;51.076;13.722;2023-05-10T01:50:56;11.60;99.90
48264;DHT22;34086;51.076;13.722;2023-05-10T01:52:06;11.60;99.90
48264;DHT22;34086;51.076;13.722;2023-05-10T01:53:09;11.60;99.90
48264;DHT22;34086;51.076;13.722;2023-05-10T01:54:12;11.60;99.90
48264;DHT22;34086;51.076;13.722;2023-05-10T01:55:15;11.60;99.90
48264;DHT22;34086;51.076;13.722;2023-05-10T01:56:16;11.60;99.90
48264;DHT22;34086;51.076;13.722;2023-05-10T01:57:20;11.60;99.90
48264;DHT22;34086;51.076;13.722;2023-05-10T01:58:29;11.60;99.90
48264;DHT22;34086;51.076;13.722;2023-05-10T01:59:34;11.60;99.90
48264;DHT22;34086;51.076;13.722;2023-05-10T02:00:43;11.60;99.90
48264;DHT22;34086;51.076;13.722;2023-05-10T02:01:45;11.60;99.90
48264;DHT22;34086;51.076;13.722;2023-05-10T02:02:48;11.50;99.90
48264;DHT22;34086;51.076;13.722;2023-05-10T02:03:50;11.50;99.90
48264;DHT22;34086;51.076;13.722;2023-05-10T02:04:53;11.50;99.90
48264;DHT22;34086;51.076;13.722;2023-05-10T02:05:56;11.50;99.90
48264;DHT22;34086;51.076;13.722;2023-05-10T02:06:57;11.50;99.90
48264;DHT22;34086;51.076;13.722;2023-05-10T02:07:59;11.50;99.90
48264;DHT22;34086;51.076;13.722;2023-05-10T02:09:02;11.50;99.90
48264;DHT22;34086;51.076;13.722;2023-05-10T02:10:05;11.50;99.90
48264;DHT22;34086;51.076;13.722;2023-05-10T02:11:08;11.50;99.90
48264;DHT22;34086;51.076;13.722;2023-05-10T02:12:09;11.50;99.90
48264;DHT22;34086;51.076;13.722;2023-05-10T02:13:13;11.40;99.90
48264;DHT22;34086;51.076;13.722;2023-05-10T02:14:15;11.40;99.90
48264;DHT22;34086;51.076;13.722;2023-05-10T02:15:22;11.40;99.90
48264;DHT22;34086;51.076;13.722;2023-05-10T02:16:24;11.40;99.90
48264;DHT22;34086;51.076;13.722;2023-05-10T02:17:27;11.40;99.90
48264;DHT22;34086;51.076;13.722;2023-05-10T02:18:29;11.40;99.90
48264;DHT22;34086;51.076;13.722;2023-05-10T02:19:32;11.40;99.90
48264;DHT22;34086;51.076;13.722;2023-05-10T02:20:34;11.40;99.90
48264;DHT22;34086;51.076;13.722;2023-05-10T02:21:37;11.40;99.90
48264;DHT22;34086;51.076;13.722;2023-05-10T02:22:39;11.40;99.90
48264;DHT22;34086;51.076;13.722;2023-05-10T02:23:40;11.40;99.90
48264;DHT22;34086;51.076;13.722;2023-05-10T02:24:41;11.40;99.90
48264;DHT22;34086;51.076;13.722;2023-05-10T02:25:43;11.40;99.90
48264;DHT22;34086;51.076;13.722;2023-05-10T02:26:45;11.40;99.90
48264;DHT22;34086;51.076;13.722;2023-05-10T02:27:49;11.40;99.90
48264;DHT22;34086;51.076;13.722;2023-05-10T02:28:50;11.40;99.90
48264;DHT22;34086;51.076;13.722;2023-05-10T02:29:52;11.30;99.90
48264;DHT22;34086;51.076;13.722;2023-05-10T02:30:54;11.30;99.90
48264;DHT22;34086;51.076;13.722;2023-05-10T02:31:56;11.30;99.90
48264;DHT22;34086;51.076;13.722;2023-05-10T02:32:58;11.30;99.90
48264;DHT22;34086;51.076;13.722;2023-05-10T02:34:00;11.40;99.90
48264;DHT22;34086;51.076;13.722;2023-05-10T02:35:02;11.40;99.90
48264;DHT22;34086;51.076;13.722;2023-05-10T02:36:04;11.40;99.90
48264;DHT22;34086;51.076;13.722;2023-05-10T02:37:05;11.30;99.90
48264;DHT22;34086;51.076;13.722;2023-05-10T02:38:07;11.30;99.90
48264;DHT22;34086;51.076;13.722;2023-05-10T02:39:09;11.30;99.90
48264;DHT22;34086;51.076;13.722;2023-05-10T02:40:13;11.30;99.90
48264;DHT22;34086;51.076;13.722;2023-05-10T02:41:16;11.30;99.90
48264;DHT22;34086;51.076;13.722;2023-05-10T02:42:24;11.30;99.90
48264;DHT22;34086;51.076;13.722;2023-05-10T02:43:26;11.20;99.90
48264;DHT22;34086;51.076;13.722;2023-05-10T02:44:31;11.20;99.90
48264;DHT22;34086;51.076;13.722;2023-05-10T02:45:35;11.20;99.90
48264;DHT22;34086;51.076;13.722;2023-05-10T02:46:37;11.20;99.90
48264;DHT22;34086;51.076;13.722;2023-05-10T02:47:38;11.30;99.90
48264;DHT22;34086;51.076;13.722;2023-05-10T02:48:39;11.30;99.90
48264;DHT22;34086;51.076;13.722;2023-05-10T02:49:39;11.20;99.90
48264;DHT22;34086;51.076;13.722;2023-05-10T02:50:43;11.20;99.90
48264;DHT22;34086;51.076;13.722;2023-05-10T02:51:49;11.20;99.90
48264;DHT22;34086;51.076;13.722;2023-05-10T02:52:51;11.20;99.90
48264;DHT22;34086;51.076;13.722;2023-05-10T02:53:55;11.10;99.90
48264;DHT22;34086;51.076;13.722;2023-05-10T02:55:01;11.10;99.90
48264;DHT22;34086;51.076;13.722;2023-05-10T02:56:15;11.10;99.90
48264;DHT22;34086;51.076;13.722;2023-05-10T02:57:26;11.10;99.90
48264;DHT22;34086;51.076;13.722;2023-05-10T02:58:27;11.10;99.90
48264;DHT22;34086;51.076;13.722;2023-05-10T02:59:28;11.10;99.90
48264;DHT22;34086;51.076;13.722;2023-05-10T03:00:28;11.10;99.90
48264;DHT22;34086;51.076;13.722;2023-05-10T03:01:29;11.10;99.90
48264;DHT22;34086;51.076;13.722;2023-05-10T03:02:30;11.10;99.90
48264;DHT22;34086;51.076;13.722;2023-05-10T03:03:31;11.00;99.90
48264;DHT22;34086;51.076;13.722;2023-05-10T03:04:32;11.10;99.90
48264;DHT22;34086;51.076;13.722;2023-05-10T03:05:32;11.10;99.90
48264;DHT22;34086;51.076;13.722;2023-05-10T03:06:36;11.10;99.90
48264;DHT22;34086;51.076;13.722;2023-05-10T03:07:38;11.10;99.90
48264;DHT22;34086;51.076;13.722;2023-05-10T03:08:38;11.10;99.90
48264;DHT22;34086;51.076;13.722;2023-05-10T03:09:41;11.10;99.90
48264;DHT22;34086;51.076;13.722;2023-05-10T03:10:55;11.10;99.90
48264;DHT22;34086;51.076;13.722;2023-05-10T03:13:44;11.20;99.90
48264;DHT22;34086;51.076;13.722;2023-05-10T03:16:14;11.10;99.90
48264;DHT22;34086;51.076;13.722;2023-05-10T03:17:55;11.10;99.90
48264;DHT22;34086;51.076;13.722;2023-05-10T03:20:29;11.10;99.90
48264;DHT22;34086;51.076;13.722;2023-05-10T03:21:32;11.10;99.90
48264;DHT22;34086;51.076;13.722;2023-05-10T03:22:37;11.10;99.90
48264;DHT22;34086;51.076;13.722;2023-05-10T03:23:43;11.10;99.90
48264;DHT22;34086;51.076;13.722;2023-05-10T03:24:44;11.10;99.90
48264;DHT22;34086;51.076;13.722;2023-05-10T03:25:47;11.10;99.90
48264;DHT22;34086;51.076;13.722;2023-05-10T03:26:49;11.10;99.90
48264;DHT22;34086;51.076;13.722;2023-05-10T03:27:52;11.10;99.90
48264;DHT22;34086;51.076;13.722;2023-05-10T03:28:54;11.10;99.90
48264;DHT22;34086;51.076;13.722;2023-05-10T03:29:55;11.10;99.90
48264;DHT22;34086;51.076;13.722;2023-05-10T03:30:57;11.10;99.90
48264;DHT22;34086;51.076;13.722;2023-05-10T03:31:59;11.10;99.90
48264;DHT22;34086;51.076;13.722;2023-05-10T03:33:07;11.10;99.90
48264;DHT22;34086;51.076;13.722;2023-05-10T03:34:11;11.10;99.90
48264;DHT22;34086;51.076;13.722;2023-05-10T03:35:12;11.10;99.90
48264;DHT22;34086;51.076;13.722;2023-05-10T03:36:17;11.10;99.90
48264;DHT22;34086;51.076;13.722;2023-05-10T03:37:17;11.10;99.90
48264;DHT22;34086;51.076;13.722;2023-05-10T03:38:18;11.10;99.90
48264;DHT22;34086;51.076;13.722;2023-05-10T03:39:18;11.10;99.90
48264;DHT22;34086;51.076;13.722;2023-05-10T03:40:26;11.20;99.90
48264;DHT22;34086;51.076;13.722;2023-05-10T03:41:29;11.20;99.90
48264;DHT22;34086;51.076;13.722;2023-05-10T03:42:29;11.20;99.90
48264;DHT22;34086;51.076;13.722;2023-05-10T03:43:30;11.20;99.90
48264;DHT22;34086;51.076;13.722;2023-05-10T03:44:31;11.20;99.90
48264;DHT22;34086;51.076;13.722;2023-05-10T03:45:33;11.20;99.90
48264;DHT22;34086;51.076;13.722;2023-05-10T03:46:34;11.20;99.90
48264;DHT22;34086;51.076;13.722;2023-05-10T03:47:34;11.20;99.90
48264;DHT22;34086;51.076;13.722;2023-05-10T03:48:35;11.20;99.90
48264;DHT22;34086;51.076;13.722;2023-05-10T03:49:35;11.20;99.90
48264;DHT22;34086;51.076;13.722;2023-05-10T03:50:36;11.20;99.90
48264;DHT22;34086;51.076;13.722;2023-05-10T03:51:38;11.20;99.90
48264;DHT22;34086;51.076;13.722;2023-05-10T03:52:38;11.20;99.90
48264;DHT22;34086;51.076;13.722;2023-05-10T03:53:39;11.20;99.90
48264;DHT22;34086;51.076;13.722;2023-05-10T03:54:40;11.20;99.90
48264;DHT22;34086;51.076;13.722;2023-05-10T03:55:41;11.20;99.90
48264;DHT22;34086;51.076;13.722;2023-05-10T03:56:42;11.20;99.90
48264;DHT22;34086;51.076;13.722;2023-05-10T03:57:43;11.20;99.90
48264;DHT22;34086;51.076;13.722;2023-05-10T03:58:43;11.20;99.90
48264;DHT22;34086;51.076;13.722;2023-05-10T03:59:44;11.30;99.90
48264;DHT22;34086;51.076;13.722;2023-05-10T04:00:45;11.30;99.90
48264;DHT22;34086;51.076;13.722;2023-05-10T04:01:47;11.30;99.90
48264;DHT22;34086;51.076;13.722;2023-05-10T04:02:47;11.30;99.90
48264;DHT22;34086;51.076;13.722;2023-05-10T04:03:53;11.30;99.90
48264;DHT22;34086;51.076;13.722;2023-05-10T04:04:54;11.30;99.90
48264;DHT22;34086;51.076;13.722;2023-05-10T04:06:01;11.40;99.90
48264;DHT22;34086;51.076;13.722;2023-05-10T04:07:03;11.30;99.90
48264;DHT22;34086;51.076;13.722;2023-05-10T04:08:04;11.30;99.90
48264;DHT22;34086;51.076;13.722;2023-05-10T04:09:05;11.30;99.90
48264;DHT22;34086;51.076;13.722;2023-05-10T04:10:06;11.40;99.90
48264;DHT22;34086;51.076;13.722;2023-05-10T04:11:07;11.40;99.90
48264;DHT22;34086;51.076;13.722;2023-05-10T04:12:08;11.50;99.90
48264;DHT22;34086;51.076;13.722;2023-05-10T04:13:09;11.70;99.90
48264;DHT22;34086;51.076;13.722;2023-05-10T04:14:10;12.00;99.90
48264;DHT22;34086;51.076;13.722;2023-05-10T04:15:10;12.30;99.90
48264;DHT22;34086;51.076;13.722;2023-05-10T04:16:11;12.80;99.90
48264;DHT22;34086;51.076;13.722;2023-05-10T04:17:11;13.20;99.90
48264;DHT22;34086;51.076;13.722;2023-05-10T04:18:12;13.60;99.90
48264;DHT22;34086;51.076;13.722;2023-05-10T04:19:12;14.00;99.90
48264;DHT22;34086;51.076;13.722;2023-05-10T04:20:13;14.40;99.90
48264;DHT22;34086;51.076;13.722;2023-05-10T04:21:14;14.70;99.90
48264;DHT22;34086;51.076;13.722;2023-05-10T04:22:15;15.00;99.00
48264;DHT22;34086;51.076;13.722;2023-05-10T04:23:16;15.30;95.90
48264;DHT22;34086;51.076;13.722;2023-05-10T04:24:17;15.50;93.70
48264;DHT22;34086;51.076;13.722;2023-05-10T04:25:17;15.60;93.00
48264;DHT22;34086;51.076;13.722;2023-05-10T04:26:18;15.70;91.90
48264;DHT22;34086;51.076;13.722;2023-05-10T04:27:18;15.90;91.40
48264;DHT22;34086;51.076;13.722;2023-05-10T04:28:19;16.20;90.60
48264;DHT22;34086;51.076;13.722;2023-05-10T04:29:20;16.30;87.70
48264;DHT22;34086;51.076;13.722;2023-05-10T04:30:20;16.40;86.90
48264;DHT22;34086;51.076;13.722;2023-05-10T04:31:21;16.50;84.50
48264;DHT22;34086;51.076;13.722;2023-05-10T04:32:22;16.50;83.20
48264;DHT22;34086;51.076;13.722;2023-05-10T04:33:22;16.50;82.30
48264;DHT22;34086;51.076;13.722;2023-05-10T04:34:23;16.70;81.90
48264;DHT22;34086;51.076;13.722;2023-05-10T04:35:24;16.80;81.10
48264;DHT22;34086;51.076;13.722;2023-05-10T04:36:24;16.90;80.80
48264;DHT22;34086;51.076;13.722;2023-05-10T04:37:25;17.10;80.10
48264;DHT22;34086;51.076;13.722;2023-05-10T04:38:25;17.30;78.50
48264;DHT22;34086;51.076;13.722;2023-05-10T04:39:27;17.40;77.10
48264;DHT22;34086;51.076;13.722;2023-05-10T04:40:27;17.30;75.70
48264;DHT22;34086;51.076;13.722;2023-05-10T04:41:28;17.40;75.90
48264;DHT22;34086;51.076;13.722;2023-05-10T04:42:29;17.40;75.20
48264;DHT22;34086;51.076;13.722;2023-05-10T04:43:29;17.40;74.30
48264;DHT22;34086;51.076;13.722;2023-05-10T04:44:30;17.50;74.30
48264;DHT22;34086;51.076;13.722;2023-05-10T04:45:31;17.70;74.00
48264;DHT22;34086;51.076;13.722;2023-05-10T04:46:31;17.80;73.40
48264;DHT22;34086;51.076;13.722;2023-05-10T04:47:32;17.90;72.60
48264;DHT22;34086;51.076;13.722;2023-05-10T04:48:33;18.00;72.00
48264;DHT22;34086;51.076;13.722;2023-05-10T04:49:33;18.10;71.30
48264;DHT22;34086;51.076;13.722;2023-05-10T04:50:34;18.00;71.20
48264;DHT22;34086;51.076;13.722;2023-05-10T04:51:35;18.20;71.10
48264;DHT22;34086;51.076;13.722;2023-05-10T04:52:35;18.30;69.60
48264;DHT22;34086;51.076;13.722;2023-05-10T04:53:36;18.10;69.20
48264;DHT22;34086;51.076;13.722;2023-05-10T04:54:37;18.10;69.20
48264;DHT22;34086;51.076;13.722;2023-05-10T04:55:37;18.20;69.40
48264;DHT22;34086;51.076;13.722;2023-05-10T04:56:38;18.40;69.20
48264;DHT22;34086;51.076;13.722;2023-05-10T04:57:39;18.50;68.90
48264;DHT22;34086;51.076;13.722;2023-05-10T04:58:39;18.70;68.10
48264;DHT22;34086;51.076;13.722;2023-05-10T04:59:40;18.70;67.00
48264;DHT22;34086;51.076;13.722;2023-05-10T05:00:40;18.50;67.40
48264;DHT22;34086;51.076;13.722;2023-05-10T05:01:41;18.50;67.50
48264;DHT22;34086;51.076;13.722;2023-05-10T05:02:44;18.40;67.20
48264;DHT22;34086;51.076;13.722;2023-05-10T05:03:45;18.40;67.00
48264;DHT22;34086;51.076;13.722;2023-05-10T05:04:46;18.30;67.40
48264;DHT22;34086;51.076;13.722;2023-05-10T05:05:46;18.50;67.50
48264;DHT22;34086;51.076;13.722;2023-05-10T05:06:47;18.50;66.70
48264;DHT22;34086;51.076;13.722;2023-05-10T05:07:48;18.60;67.10
48264;DHT22;34086;51.076;13.722;2023-05-10T05:08:48;18.70;67.10
48264;DHT22;34086;51.076;13.722;2023-05-10T05:09:49;18.90;66.40
48264;DHT22;34086;51.076;13.722;2023-05-10T05:10:50;19.10;65.50
48264;DHT22;34086;51.076;13.722;2023-05-10T05:11:51;19.10;65.40
48264;DHT22;34086;51.076;13.722;2023-05-10T05:12:51;19.10;64.80
48264;DHT22;34086;51.076;13.722;2023-05-10T05:13:52;19.30;64.60
48264;DHT22;34086;51.076;13.722;2023-05-10T05:14:53;19.20;64.10
48264;DHT22;34086;51.076;13.722;2023-05-10T05:15:53;19.20;63.80
48264;DHT22;34086;51.076;13.722;2023-05-10T05:16:55;19.30;63.20
48264;DHT22;34086;51.076;13.722;2023-05-10T05:17:56;19.10;63.50
48264;DHT22;34086;51.076;13.722;2023-05-10T05:18:56;19.10;64.80
48264;DHT22;34086;51.076;13.722;2023-05-10T05:19:57;19.00;64.50
48264;DHT22;34086;51.076;13.722;2023-05-10T05:20:57;19.00;64.20
48264;DHT22;34086;51.076;13.722;2023-05-10T05:21:58;19.00;63.60
48264;DHT22;34086;51.076;13.722;2023-05-10T05:22:59;19.00;64.00
48264;DHT22;34086;51.076;13.722;2023-05-10T05:23:59;19.10;64.50
48264;DHT22;34086;51.076;13.722;2023-05-10T05:25:00;19.30;64.30
48264;DHT22;34086;51.076;13.722;2023-05-10T05:26:02;19.40;63.20
48264;DHT22;34086;51.076;13.722;2023-05-10T05:27:03;19.50;63.20
48264;DHT22;34086;51.076;13.722;2023-05-10T05:28:04;19.70;63.20
48264;DHT22;34086;51.076;13.722;2023-05-10T05:29:04;19.80;62.70
48264;DHT22;34086;51.076;13.722;2023-05-10T05:30:05;19.90;62.10
48264;DHT22;34086;51.076;13.722;2023-05-10T05:31:07;20.00;61.20
48264;DHT22;34086;51.076;13.722;2023-05-10T05:32:07;20.00;61.30
48264;DHT22;34086;51.076;13.722;2023-05-10T05:33:08;19.90;61.40
48264;DHT22;34086;51.076;13.722;2023-05-10T05:34:09;19.90;61.80
48264;DHT22;34086;51.076;13.722;2023-05-10T05:35:09;19.70;61.20
48264;DHT22;34086;51.076;13.722;2023-05-10T05:36:11;19.70;61.80
48264;DHT22;34086;51.076;13.722;2023-05-10T05:37:15;19.90;62.10
48264;DHT22;34086;51.076;13.722;2023-05-10T05:38:16;20.00;61.80
48264;DHT22;34086;51.076;13.722;2023-05-10T05:39:17;19.80;61.30
48264;DHT22;34086;51.076;13.722;2023-05-10T05:40:18;19.60;61.40
48264;DHT22;34086;51.076;13.722;2023-05-10T05:41:18;19.70;62.10
48264;DHT22;34086;51.076;13.722;2023-05-10T05:42:19;19.80;61.70
48264;DHT22;34086;51.076;13.722;2023-05-10T05:43:19;19.80;61.70
48264;DHT22;34086;51.076;13.722;2023-05-10T05:44:20;19.90;61.60
48264;DHT22;34086;51.076;13.722;2023-05-10T05:45:20;19.80;61.60
48264;DHT22;34086;51.076;13.722;2023-05-10T05:46:21;19.90;61.60
48264;DHT22;34086;51.076;13.722;2023-05-10T05:47:22;19.90;61.10
48264;DHT22;34086;51.076;13.722;2023-05-10T05:48:22;19.90;60.70
48264;DHT22;34086;51.076;13.722;2023-05-10T05:49:23;20.00;60.90
48264;DHT22;34086;51.076;13.722;2023-05-10T05:50:23;20.20;61.00
48264;DHT22;34086;51.076;13.722;2023-05-10T05:51:24;20.10;60.40
48264;DHT22;34086;51.076;13.722;2023-05-10T05:52:25;20.00;61.30
48264;DHT22;34086;51.076;13.722;2023-05-10T05:53:26;20.10;61.20
48264;DHT22;34086;51.076;13.722;2023-05-10T05:54:27;20.10;60.70
48264;DHT22;34086;51.076;13.722;2023-05-10T05:55:27;20.30;60.60
48264;DHT22;34086;51.076;13.722;2023-05-10T05:56:30;20.40;60.20
48264;DHT22;34086;51.076;13.722;2023-05-10T05:57:30;20.50;59.90
48264;DHT22;34086;51.076;13.722;2023-05-10T05:58:31;20.30;60.20
48264;DHT22;34086;51.076;13.722;2023-05-10T05:59:31;20.20;60.50
48264;DHT22;34086;51.076;13.722;2023-05-10T06:00:32;20.20;60.90
48264;DHT22;34086;51.076;13.722;2023-05-10T06:01:32;20.10;60.60
48264;DHT22;34086;51.076;13.722;2023-05-10T06:02:33;20.00;60.60
48264;DHT22;34086;51.076;13.722;2023-05-10T06:03:33;19.80;61.40
48264;DHT22;34086;51.076;13.722;2023-05-10T06:04:34;19.60;62.10
48264;DHT22;34086;51.076;13.722;2023-05-10T06:05:34;19.30;62.70
48264;DHT22;34086;51.076;13.722;2023-05-10T06:06:35;19.00;63.60
48264;DHT22;34086;51.076;13.722;2023-05-10T06:07:35;18.60;65.10
48264;DHT22;34086;51.076;13.722;2023-05-10T06:08:36;18.20;66.50
48264;DHT22;34086;51.076;13.722;2023-05-10T06:09:37;18.00;67.50
48264;DHT22;34086;51.076;13.722;2023-05-10T06:10:37;17.80;68.50
48264;DHT22;34086;51.076;13.722;2023-05-10T06:11:38;17.50;70.00
48264;DHT22;34086;51.076;13.722;2023-05-10T06:12:38;17.30;70.50
48264;DHT22;34086;51.076;13.722;2023-05-10T06:13:39;17.10;71.90
48264;DHT22;34086;51.076;13.722;2023-05-10T06:14:40;17.00;72.40
48264;DHT22;34086;51.076;13.722;2023-05-10T06:15:40;16.90;73.30
48264;DHT22;34086;51.076;13.722;2023-05-10T06:16:41;16.70;73.80
48264;DHT22;34086;51.076;13.722;2023-05-10T06:17:41;16.60;73.90
48264;DHT22;34086;51.076;13.722;2023-05-10T06:18:43;16.40;75.20
48264;DHT22;34086;51.076;13.722;2023-05-10T06:19:44;16.30;75.90
48264;DHT22;34086;51.076;13.722;2023-05-10T06:20:44;16.30;76.50
48264;DHT22;34086;51.076;13.722;2023-05-10T06:21:45;16.20;77.20
48264;DHT22;34086;51.076;13.722;2023-05-10T06:22:45;16.10;78.10
48264;DHT22;34086;51.076;13.722;2023-05-10T06:23:46;16.10;79.20
48264;DHT22;34086;51.076;13.722;2023-05-10T06:24:46;16.10;79.20
48264;DHT22;34086;51.076;13.722;2023-05-10T06:25:47;16.00;79.90
48264;DHT22;34086;51.076;13.722;2023-05-10T06:26:48;16.00;81.10
48264;DHT22;34086;51.076;13.722;2023-05-10T06:27:50;16.00;81.20
48264;DHT22;34086;51.076;13.722;2023-05-10T06:28:51;16.00;82.10
48264;DHT22;34086;51.076;13.722;2023-05-10T06:29:51;16.00;81.90
48264;DHT22;34086;51.076;13.722;2023-05-10T06:30:52;16.00;82.50
48264;DHT22;34086;51.076;13.722;2023-05-10T06:31:52;16.00;84.00
48264;DHT22;34086;51.076;13.722;2023-05-10T06:32:54;16.10;84.20
48264;DHT22;34086;51.076;13.722;2023-05-10T06:33:55;16.10;83.70
48264;DHT22;34086;51.076;13.722;2023-05-10T06:34:56;16.10;83.70
48264;DHT22;34086;51.076;13.722;2023-05-10T06:35:56;16.10;83.50
48264;DHT22;34086;51.076;13.722;2023-05-10T06:36:57;16.10;84.00
48264;DHT22;34086;51.076;13.722;2023-05-10T06:37:58;16.00;84.00